Time;durP1;ratioP1;P1;durP2;ratioP2;P2;SDS_P1;SDS_P2;PMS_P1;PMS_P2;Temp;Humidity;BMP_temperature;BMP_pressure;BME280_temperature;BME280_humidity;BME280_pressure;Samples;Min_cycle;Max_cycle;Signal;HPM_P1;HPM_P2
2022/10/14 00:01:20;;;;;;;79.30;49.20;;;12.90;94.30;;;;;;5033627;28;20180;-89
2022/10/14 00:03:47;;;;;;;76.23;49.53;;;12.80;94.30;;;;;;5033939;28;20211;-89
2022/10/14 00:06:18;;;;;;;70.10;46.77;;;12.90;94.30;;;;;;5033879;28;20524;-89
2022/10/14 00:08:46;;;;;;;82.43;50.30;;;12.80;94.30;;;;;;5033403;28;20287;-89
2022/10/14 00:11:14;;;;;;;76.97;48.77;;;12.80;94.30;;;;;;5034098;28;20188;-89
2022/10/14 00:13:40;;;;;;;78.93;48.87;;;12.80;94.30;;;;;;5033432;28;20292;-89
2022/10/14 00:16:13;;;;;;;72.97;48.50;;;12.80;94.30;;;;;;5033734;28;20212;-88
2022/10/14 00:18:39;;;;;;;86.40;49.67;;;12.80;94.30;;;;;;5034488;28;20187;-89
2022/10/14 00:21:04;;;;;;;86.60;51.27;;;12.80;94.40;;;;;;5033525;28;20279;-88
2022/10/14 00:23:30;;;;;;;92.07;51.37;;;12.80;94.40;;;;;;5033724;28;20180;-88
2022/10/14 00:25:55;;;;;;;90.63;52.80;;;12.80;94.50;;;;;;5033732;28;20181;-89
2022/10/14 00:28:21;;;;;;;92.07;52.03;;;12.80;94.50;;;;;;5033491;28;20205;-88
2022/10/14 00:30:54;;;;;;;97.70;55.03;;;12.80;94.60;;;;;;5033127;28;20307;-89
2022/10/14 00:33:20;;;;;;;93.03;54.90;;;12.80;94.60;;;;;;5033307;28;20196;-89
2022/10/14 00:35:56;;;;;;;91.17;55.53;;;12.70;94.60;;;;;;5033166;28;20643;-88
2022/10/14 00:38:22;;;;;;;91.30;54.07;;;12.70;94.60;;;;;;5033258;28;20553;-88
2022/10/14 00:40:48;;;;;;;96.20;54.23;;;12.70;94.70;;;;;;5033248;28;20180;-88
2022/10/14 00:43:13;;;;;;;94.40;56.17;;;12.70;94.70;;;;;;5032883;28;20230;-89
2022/10/14 00:45:39;;;;;;;105.87;57.43;;;12.70;94.70;;;;;;5033039;28;20180;-89
2022/10/14 00:48:06;;;;;;;94.40;57.93;;;12.70;94.80;;;;;;5032937;28;20645;-88
2022/10/14 00:50:33;;;;;;;107.00;59.63;;;12.70;94.80;;;;;;5033370;28;20172;-88
2022/10/14 00:52:59;;;;;;;94.43;56.10;;;12.70;94.80;;;;;;5033118;28;20176;-88
2022/10/14 00:55:25;;;;;;;103.33;57.27;;;12.70;94.80;;;;;;5032732;28;20698;-88
2022/10/14 00:57:51;;;;;;;105.27;59.00;;;12.70;94.90;;;;;;5032918;28;20211;-88
2022/10/14 01:00:18;;;;;;;97.47;59.80;;;12.70;94.90;;;;;;5033823;28;20208;-89
2022/10/14 01:02:44;;;;;;;104.50;58.23;;;12.70;94.90;;;;;;5033368;28;20213;-88
2022/10/14 01:05:12;;;;;;;107.80;60.70;;;12.60;94.90;;;;;;5032932;28;20197;-88
2022/10/14 01:07:59;;;;;;;105.30;60.47;;;12.60;95.00;;;;;;5032438;28;20200;-88
2022/10/14 01:10:52;;;;;;;96.00;57.63;;;12.60;94.90;;;;;;5032518;28;20204;-89
2022/10/14 01:13:44;;;;;;;92.63;53.33;;;12.60;95.00;;;;;;5032509;28;20200;-88
2022/10/14 01:16:24;;;;;;;108.07;56.73;;;12.50;94.90;;;;;;5033217;28;20169;-88
2022/10/14 01:19:17;;;;;;;89.67;53.93;;;12.40;94.90;;;;;;5032425;28;20176;-89
2022/10/14 01:22:11;;;;;;;82.70;51.40;;;12.30;94.90;;;;;;5032498;28;20631;-89
2022/10/14 01:25:15;;;;;;;92.00;53.90;;;12.30;94.90;;;;;;5032224;28;20286;-88
2022/10/14 01:27:51;;;;;;;102.60;56.03;;;12.30;94.90;;;;;;5033339;28;20200;-88
2022/10/14 01:30:22;;;;;;;91.17;54.57;;;12.20;94.90;;;;;;5032174;28;20550;-88
2022/10/14 01:32:51;;;;;;;102.00;56.80;;;12.20;95.00;;;;;;5032803;28;20180;-89
2022/10/14 01:35:41;;;;;;;105.40;58.03;;;12.20;95.00;;;;;;5032440;28;20216;-89
2022/10/14 01:38:16;;;;;;;106.03;60.30;;;12.20;95.10;;;;;;5032168;28;20563;-88
2022/10/14 01:41:05;;;;;;;111.13;59.10;;;12.20;95.20;;;;;;5032193;28;20176;-89
2022/10/14 01:43:32;;;;;;;109.90;61.30;;;12.20;95.20;;;;;;5032858;28;20177;-88
2022/10/14 01:46:00;;;;;;;103.40;61.47;;;12.30;95.20;;;;;;5032213;28;20187;-88
2022/10/14 01:48:31;;;;;;;113.10;61.63;;;12.30;95.20;;;;;;5035269;28;20208;-89
2022/10/14 01:51:00;;;;;;;113.87;62.87;;;12.30;95.30;;;;;;5036322;28;20595;-89
2022/10/14 01:53:32;;;;;;;117.10;62.20;;;12.30;95.30;;;;;;5037470;28;20177;-89
2022/10/14 01:56:00;;;;;;;96.20;56.77;;;12.30;95.30;;;;;;5036205;28;20259;-89
2022/10/14 01:58:30;;;;;;;86.03;53.20;;;12.40;95.30;;;;;;5036091;28;20212;-88
2022/10/14 02:00:56;;;;;;;80.87;49.10;;;12.40;95.30;;;;;;5036938;28;20597;-89
2022/10/14 02:03:21;;;;;;;90.43;52.43;;;12.40;95.30;;;;;;5036081;28;20184;-89
2022/10/14 02:05:59;;;;;;;86.93;52.20;;;12.40;95.30;;;;;;5035986;28;20668;-89
2022/10/14 02:08:30;;;;;;;82.10;52.23;;;12.40;95.30;;;;;;5035849;28;20201;-89
2022/10/14 02:11:10;;;;;;;86.37;53.43;;;12.50;95.30;;;;;;5035932;28;20179;-89
2022/10/14 02:13:45;;;;;;;87.87;51.87;;;12.40;95.30;;;;;;5036283;28;20200;-88
2022/10/14 02:16:37;;;;;;;86.50;53.00;;;12.40;95.30;;;;;;5035859;28;20713;-89
2022/10/14 02:19:06;;;;;;;74.37;47.17;;;12.50;95.30;;;;;;5009591;28;20243;-88
2022/10/14 02:21:42;;;;;;;76.43;49.67;;;12.50;95.30;;;;;;5035633;28;20177;-89
2022/10/14 02:24:30;;;;;;;80.00;50.77;;;12.50;95.30;;;;;;5035936;28;20223;-88
2022/10/14 02:27:00;;;;;;;80.63;48.80;;;12.50;95.30;;;;;;5035588;28;20173;-89
2022/10/14 02:29:27;;;;;;;81.33;49.37;;;12.50;95.30;;;;;;5035687;28;20177;-89
2022/10/14 02:31:54;;;;;;;75.47;49.50;;;12.40;95.30;;;;;;5035687;28;20181;-88
2022/10/14 02:34:21;;;;;;;81.00;49.10;;;12.50;95.30;;;;;;5035659;28;20222;-89
2022/10/14 02:36:48;;;;;;;77.50;49.77;;;12.40;95.30;;;;;;5035391;28;20200;-89
2022/10/14 02:39:20;;;;;;;87.00;52.40;;;12.40;95.30;;;;;;5035719;28;20181;-89
2022/10/14 02:41:46;;;;;;;84.93;51.03;;;12.50;95.30;;;;;;5035345;28;20271;-89
2022/10/14 02:44:11;;;;;;;84.07;53.40;;;12.40;95.30;;;;;;5035174;28;20299;-89
2022/10/14 02:46:39;;;;;;;89.07;55.37;;;12.40;95.30;;;;;;5035413;28;20180;-89
2022/10/14 02:49:04;;;;;;;91.13;54.63;;;12.40;95.30;;;;;;5035300;28;20204;-88
2022/10/14 02:51:30;;;;;;;84.63;53.87;;;12.40;95.30;;;;;;5035150;28;20544;-89
2022/10/14 02:53:56;;;;;;;93.47;56.97;;;12.30;95.30;;;;;;5034985;28;20724;-89
2022/10/14 02:56:22;;;;;;;87.50;55.67;;;12.40;95.30;;;;;;5035060;28;20173;-89
2022/10/14 02:58:48;;;;;;;96.60;57.00;;;12.30;95.30;;;;;;5034863;28;20177;-88
2022/10/14 03:01:13;;;;;;;88.63;54.40;;;12.30;95.30;;;;;;5034968;28;20176;-88
2022/10/14 03:03:39;;;;;;;94.43;53.87;;;12.40;95.30;;;;;;5035544;28;20196;-89
2022/10/14 03:06:05;;;;;;;75.57;50.27;;;12.40;95.30;;;;;;5034855;28;20220;-89
2022/10/14 03:08:30;;;;;;;82.20;51.57;;;12.40;95.30;;;;;;5034778;28;20208;-89
2022/10/14 03:10:56;;;;;;;81.60;50.67;;;12.50;95.30;;;;;;5034725;28;20184;-89
2022/10/14 03:13:21;;;;;;;74.50;48.67;;;12.50;95.30;;;;;;5034586;28;20173;-89
2022/10/14 03:15:49;;;;;;;72.53;48.50;;;12.50;95.30;;;;;;5034642;28;20267;-89
2022/10/14 03:18:15;;;;;;;74.90;49.87;;;12.50;95.30;;;;;;5034593;28;20177;-89
2022/10/14 03:20:43;;;;;;;75.63;47.13;;;12.40;95.30;;;;;;5034606;28;20551;-89
2022/10/14 03:23:09;;;;;;;69.87;45.90;;;12.50;95.30;;;;;;5034493;28;20682;-88
2022/10/14 03:25:34;;;;;;;58.07;41.33;;;12.50;95.30;;;;;;5034628;28;20202;-89
2022/10/14 03:28:00;;;;;;;53.57;40.37;;;12.50;95.30;;;;;;5034491;28;20200;-88
2022/10/14 03:30:25;;;;;;;54.40;41.03;;;12.50;95.30;;;;;;5035292;28;20239;-89
2022/10/14 03:32:51;;;;;;;62.07;42.23;;;12.50;95.30;;;;;;5034419;28;20645;-89
2022/10/14 03:35:16;;;;;;;58.10;41.70;;;12.50;95.30;;;;;;5034575;28;20301;-89
2022/10/14 03:37:42;;;;;;;56.33;41.10;;;12.50;95.30;;;;;;5034192;28;20254;-89
2022/10/14 03:40:08;;;;;;;61.30;41.83;;;12.60;95.30;;;;;;5034371;28;20185;-89
2022/10/14 03:42:34;;;;;;;58.40;42.17;;;12.60;95.20;;;;;;5034475;28;20177;-89
2022/10/14 03:45:00;;;;;;;65.97;44.60;;;12.50;95.20;;;;;;5034914;28;20201;-89
2022/10/14 03:47:25;;;;;;;74.33;49.80;;;12.50;95.20;;;;;;5034440;28;20211;-89
2022/10/14 03:49:51;;;;;;;75.53;48.57;;;12.50;95.20;;;;;;5034025;28;20173;-89
2022/10/14 03:52:16;;;;;;;71.87;49.80;;;12.50;95.20;;;;;;5033968;28;20647;-88
2022/10/14 03:54:42;;;;;;;74.07;49.83;;;12.60;95.30;;;;;;5034036;28;20211;-89
2022/10/14 03:57:07;;;;;;;70.07;48.17;;;12.60;95.30;;;;;;5033911;28;20601;-89
2022/10/14 03:59:33;;;;;;;62.63;46.30;;;12.60;95.20;;;;;;5033818;28;20168;-89
2022/10/14 04:01:58;;;;;;;66.80;45.63;;;12.60;95.20;;;;;;5033799;28;20222;-88
2022/10/14 04:04:24;;;;;;;72.00;49.23;;;12.60;95.20;;;;;;5034139;28;20563;-89
2022/10/14 04:06:49;;;;;;;76.33;50.13;;;12.50;95.20;;;;;;5033600;28;20188;-88
2022/10/14 04:09:15;;;;;;;63.27;48.90;;;12.60;95.20;;;;;;5033366;28;20205;-89
2022/10/14 04:11:40;;;;;;;60.53;45.30;;;12.60;95.20;;;;;;5033322;28;20173;-89
2022/10/14 04:14:06;;;;;;;55.33;43.43;;;12.60;95.20;;;;;;5033468;28;20287;-89
2022/10/14 04:16:31;;;;;;;64.03;45.17;;;12.60;95.20;;;;;;5033525;28;20184;-89
2022/10/14 04:18:58;;;;;;;60.40;45.30;;;12.60;95.20;;;;;;5033366;28;20180;-89
2022/10/14 04:21:23;;;;;;;57.53;43.83;;;12.60;95.20;;;;;;5033408;28;20184;-89
2022/10/14 04:23:49;;;;;;;65.93;44.53;;;12.60;95.20;;;;;;5033666;28;20192;-89
2022/10/14 04:26:15;;;;;;;56.10;42.83;;;12.60;95.10;;;;;;5034530;28;20177;-89
2022/10/14 04:28:41;;;;;;;59.07;44.73;;;12.60;95.20;;;;;;5033254;28;20204;-89
2022/10/14 04:31:06;;;;;;;59.63;44.77;;;12.60;95.20;;;;;;5033093;28;20181;-89
2022/10/14 04:33:33;;;;;;;68.73;47.10;;;12.60;95.10;;;;;;5033026;28;20193;-89
2022/10/14 04:36:02;;;;;;;61.07;46.60;;;12.60;95.10;;;;;;5033568;28;20177;-88
2022/10/14 04:38:28;;;;;;;60.47;43.27;;;12.50;95.10;;;;;;5033601;28;20179;-89
2022/10/14 04:40:54;;;;;;;64.97;46.33;;;12.50;95.10;;;;;;5033016;28;20184;-89
2022/10/14 04:43:20;;;;;;;68.40;49.33;;;12.50;95.10;;;;;;5032979;28;20263;-88
2022/10/14 04:45:46;;;;;;;76.03;50.20;;;12.50;95.10;;;;;;5033118;28;20745;-89
2022/10/14 04:48:11;;;;;;;83.57;51.63;;;12.50;95.10;;;;;;5032884;28;20236;-89
2022/10/14 04:50:37;;;;;;;77.43;51.60;;;12.40;95.00;;;;;;5032864;28;20263;-89
2022/10/14 04:53:02;;;;;;;74.27;48.60;;;12.40;95.10;;;;;;5032915;28;20173;-89
2022/10/14 04:55:28;;;;;;;72.67;50.10;;;12.40;95.10;;;;;;5032919;28;20740;-89
2022/10/14 04:57:53;;;;;;;69.23;48.77;;;12.40;95.10;;;;;;5032981;28;20185;-89
2022/10/14 05:00:19;;;;;;;72.93;49.93;;;12.40;95.10;;;;;;5032872;28;20185;-89
2022/10/14 05:02:45;;;;;;;75.50;49.33;;;12.40;95.10;;;;;;5032855;28;20239;-89
2022/10/14 05:05:11;;;;;;;73.90;50.07;;;12.40;95.10;;;;;;5032568;28;20232;-89
2022/10/14 05:07:36;;;;;;;78.40;50.80;;;12.40;95.10;;;;;;5032480;28;20287;-89
2022/10/14 05:10:03;;;;;;;75.17;49.50;;;12.50;95.10;;;;;;5032527;28;20168;-89
2022/10/14 05:12:30;;;;;;;72.30;49.87;;;12.50;95.10;;;;;;5032614;28;20177;-89
2022/10/14 05:14:55;;;;;;;85.53;52.17;;;12.50;95.10;;;;;;5032519;28;20200;-89
2022/10/14 05:17:21;;;;;;;78.00;51.60;;;12.50;95.10;;;;;;5032650;28;20180;-89
2022/10/14 05:19:47;;;;;;;82.10;54.27;;;12.50;95.10;;;;;;5033276;28;20589;-89
2022/10/14 05:22:13;;;;;;;78.10;51.93;;;12.50;95.10;;;;;;5031617;28;20177;-89
2022/10/14 05:24:38;;;;;;;72.87;48.23;;;12.60;95.10;;;;;;5032341;28;20663;-89
2022/10/14 05:27:04;;;;;;;75.67;49.93;;;12.60;95.10;;;;;;5032291;28;20234;-89
2022/10/14 05:29:30;;;;;;;76.23;52.20;;;12.60;95.10;;;;;;5032346;28;20173;-88
2022/10/14 05:31:55;;;;;;;80.93;52.50;;;12.50;95.10;;;;;;5032242;28;20187;-89
2022/10/14 05:34:21;;;;;;;76.70;52.23;;;12.60;95.10;;;;;;5032020;28;20354;-89
2022/10/14 05:36:47;;;;;;;89.57;54.57;;;12.50;95.10;;;;;;5032275;28;20177;-89
2022/10/14 05:39:12;;;;;;;83.83;54.27;;;12.50;95.10;;;;;;5032118;28;20176;-89
2022/10/14 05:41:38;;;;;;;80.80;52.43;;;12.60;95.10;;;;;;5032201;28;20263;-89
2022/10/14 05:44:05;;;;;;;93.00;53.97;;;12.50;95.10;;;;;;5032068;28;20227;-89
2022/10/14 05:46:30;;;;;;;82.13;54.03;;;12.60;95.10;;;;;;5032112;28;20187;-89
2022/10/14 05:48:56;;;;;;;76.20;50.63;;;12.60;95.10;;;;;;5032099;28;20200;-89
2022/10/14 05:51:22;;;;;;;90.83;54.23;;;12.60;95.10;;;;;;5032147;28;20208;-88
2022/10/14 05:53:48;;;;;;;87.50;54.47;;;12.50;95.10;;;;;;5031997;28;20270;-89
2022/10/14 05:56:14;;;;;;;86.50;53.77;;;12.50;95.10;;;;;;5032248;28;20639;-88
2022/10/14 05:58:40;;;;;;;96.07;56.50;;;12.50;95.10;;;;;;5032094;28;20669;-88
2022/10/14 06:01:07;;;;;;;95.87;57.07;;;12.50;95.10;;;;;;5032475;28;20183;-88
2022/10/14 06:03:33;;;;;;;93.20;55.60;;;12.50;95.10;;;;;;5032031;28;20267;-89
2022/10/14 06:05:59;;;;;;;96.63;57.40;;;12.50;95.20;;;;;;5032022;28;20214;-89
2022/10/14 06:08:25;;;;;;;90.47;55.13;;;12.50;95.20;;;;;;5031783;28;20200;-89
2022/10/14 06:10:51;;;;;;;99.50;56.17;;;12.50;95.20;;;;;;5031816;28;20256;-89
2022/10/14 06:13:17;;;;;;;106.87;60.43;;;12.50;95.20;;;;;;5031908;28;20800;-89
2022/10/14 06:15:43;;;;;;;112.43;59.77;;;12.50;95.20;;;;;;5031926;28;20173;-89
2022/10/14 06:18:09;;;;;;;108.97;58.80;;;12.50;95.30;;;;;;5031920;28;20173;-89
2022/10/14 06:20:34;;;;;;;115.70;62.00;;;12.50;95.30;;;;;;5031992;28;20207;-89
2022/10/14 06:23:01;;;;;;;100.03;56.57;;;12.50;95.30;;;;;;5032019;28;20263;-89
2022/10/14 06:25:27;;;;;;;103.43;56.53;;;12.50;95.30;;;;;;5031659;28;20196;-88
2022/10/14 06:27:52;;;;;;;108.77;59.03;;;12.50;95.30;;;;;;5031840;28;20209;-89
2022/10/14 06:30:18;;;;;;;102.27;57.27;;;12.60;95.30;;;;;;5031919;28;20169;-89
2022/10/14 06:32:44;;;;;;;89.17;55.03;;;12.60;95.30;;;;;;5032391;28;20173;-89
2022/10/14 06:35:09;;;;;;;101.17;56.80;;;12.60;95.30;;;;;;5035295;28;20719;-89
2022/10/14 06:37:35;;;;;;;89.70;52.90;;;12.60;95.30;;;;;;5035457;28;20267;-89
2022/10/14 06:40:01;;;;;;;91.47;53.30;;;12.60;95.30;;;;;;5036843;28;20184;-89
2022/10/14 06:42:26;;;;;;;92.07;54.30;;;12.70;95.30;;;;;;5035326;28;20189;-89
2022/10/14 06:44:52;;;;;;;102.20;56.23;;;12.60;95.30;;;;;;5035128;28;20578;-89
2022/10/14 06:47:17;;;;;;;114.93;58.93;;;12.60;95.40;;;;;;5035018;28;20559;-87
2022/10/14 06:49:43;;;;;;;112.70;59.77;;;12.60;95.40;;;;;;5035033;28;20173;-88
2022/10/14 06:52:09;;;;;;;120.47;62.47;;;12.60;95.40;;;;;;5034968;28;20187;-87
2022/10/14 06:54:34;;;;;;;124.07;62.50;;;12.60;95.40;;;;;;5034901;28;20193;-89
2022/10/14 06:57:00;;;;;;;129.03;63.90;;;12.60;95.40;;;;;;5035262;28;20177;-89
2022/10/14 06:59:27;;;;;;;117.37;61.97;;;12.60;95.40;;;;;;5035039;28;20622;-89
2022/10/14 07:01:53;;;;;;;121.13;62.97;;;12.60;95.40;;;;;;5035124;28;20647;-88
2022/10/14 07:04:19;;;;;;;120.40;60.60;;;12.60;95.50;;;;;;5034950;28;20211;-88
2022/10/14 07:06:44;;;;;;;109.83;57.50;;;12.70;95.50;;;;;;5034948;28;20184;-88
2022/10/14 07:09:10;;;;;;;113.80;59.37;;;12.70;95.50;;;;;;5034664;28;20679;-88
2022/10/14 07:11:35;;;;;;;105.97;58.70;;;12.70;95.50;;;;;;5034713;28;20173;-89
2022/10/14 07:14:01;;;;;;;100.03;55.57;;;12.70;95.50;;;;;;5034786;28;20199;-89
2022/10/14 07:16:27;;;;;;;115.83;59.57;;;12.70;95.50;;;;;;5034482;28;20168;-88
2022/10/14 07:18:53;;;;;;;113.13;58.30;;;12.80;95.50;;;;;;5034555;28;20204;-88
2022/10/14 07:21:18;;;;;;;113.77;59.80;;;12.80;95.50;;;;;;5034412;28;20227;-89
2022/10/14 07:23:44;;;;;;;120.07;60.30;;;12.80;95.50;;;;;;5034650;28;20197;-89
2022/10/14 07:26:09;;;;;;;137.23;64.60;;;12.80;95.50;;;;;;5035749;28;20283;-89
2022/10/14 07:28:35;;;;;;;136.73;64.03;;;12.70;95.50;;;;;;5035550;28;20692;-88
2022/10/14 07:31:04;;;;;;;170.67;73.20;;;12.70;95.60;;;;;;5034580;28;20181;-88
2022/10/14 07:33:30;;;;;;;174.30;75.73;;;12.70;95.60;;;;;;5034219;28;20173;-89
2022/10/14 07:36:01;;;;;;;169.97;74.20;;;12.70;95.60;;;;;;5034204;28;20380;-89
2022/10/14 07:38:27;;;;;;;174.53;76.23;;;12.80;95.60;;;;;;5035033;28;20177;-89
2022/10/14 07:41:05;;;;;;;186.23;77.83;;;12.70;95.60;;;;;;5034097;28;20191;-89
2022/10/14 07:43:32;;;;;;;188.40;80.37;;;12.70;95.60;;;;;;5034544;28;20192;-89
2022/10/14 07:46:06;;;;;;;191.17;78.17;;;12.70;95.70;;;;;;5033082;28;20650;-88
2022/10/14 07:48:33;;;;;;;200.77;81.93;;;12.70;95.70;;;;;;5034205;28;20206;-88
2022/10/14 07:50:59;;;;;;;225.67;92.03;;;12.70;95.70;;;;;;5034062;28;20176;-88
2022/10/14 07:53:26;;;;;;;213.33;88.77;;;12.80;95.70;;;;;;5034218;28;20230;-88
2022/10/14 07:55:52;;;;;;;199.60;80.83;;;12.80;95.70;;;;;;5033878;28;20183;-88
2022/10/14 07:58:22;;;;;;;213.80;89.00;;;12.80;95.70;;;;;;5034697;28;20202;-88
2022/10/14 08:00:49;;;;;;;211.03;88.07;;;12.80;95.70;;;;;;5034067;28;20169;-88
2022/10/14 08:03:16;;;;;;;206.13;87.03;;;12.80;95.70;;;;;;5033948;28;20177;-88
2022/10/14 08:05:42;;;;;;;211.67;87.70;;;12.80;95.60;;;;;;5033967;28;20709;-88
2022/10/14 08:08:08;;;;;;;206.20;87.60;;;12.80;95.60;;;;;;5033848;28;20251;-88
2022/10/14 08:10:34;;;;;;;202.20;89.60;;;12.90;95.60;;;;;;5033774;28;20195;-89
2022/10/14 08:12:59;;;;;;;199.47;85.80;;;12.90;95.60;;;;;;5033830;28;20643;-88
2022/10/14 08:15:28;;;;;;;197.60;88.17;;;12.80;95.50;;;;;;5033470;28;20789;-88
2022/10/14 08:17:54;;;;;;;187.87;83.73;;;12.80;95.40;;;;;;5033492;28;20267;-88
2022/10/14 08:20:20;;;;;;;191.47;85.00;;;12.80;95.40;;;;;;5033288;28;20184;-89
2022/10/14 08:22:45;;;;;;;185.60;80.83;;;12.90;95.40;;;;;;5034140;28;20172;-88
2022/10/14 08:25:11;;;;;;;184.43;83.20;;;12.90;95.30;;;;;;5034246;28;20569;-88
2022/10/14 08:27:36;;;;;;;175.73;80.73;;;13.00;95.30;;;;;;5033121;28;20208;-88
2022/10/14 08:30:02;;;;;;;173.70;78.73;;;13.10;95.30;;;;;;5033276;28;20219;-88
2022/10/14 08:32:28;;;;;;;174.20;81.50;;;13.20;95.20;;;;;;5033017;28;20200;-88
2022/10/14 08:34:54;;;;;;;158.50;79.63;;;13.10;95.00;;;;;;5033101;28;20244;-88
2022/10/14 08:37:20;;;;;;;152.90;76.23;;;13.10;94.90;;;;;;5032943;28;20172;-88
2022/10/14 08:39:46;;;;;;;153.50;75.83;;;13.10;94.70;;;;;;5033048;28;20177;-88
2022/10/14 08:42:30;;;;;;;159.80;78.13;;;13.10;94.60;;;;;;5033068;28;20215;-89
2022/10/14 08:45:00;;;;;;;147.30;71.53;;;13.20;94.60;;;;;;5032992;28;20276;-88
2022/10/14 08:47:35;;;;;;;137.50;71.17;;;13.20;94.40;;;;;;5034320;28;20241;-88
2022/10/14 08:50:25;;;;;;;139.53;72.23;;;13.20;94.20;;;;;;5034218;28;20161;-87
2022/10/14 08:53:05;;;;;;;121.83;66.53;;;13.20;94.00;;;;;;5032911;28;20161;-88
2022/10/14 08:55:45;;;;;;;113.87;60.93;;;13.30;93.90;;;;;;5032662;28;20192;-88
2022/10/14 08:58:22;;;;;;;115.60;63.07;;;13.30;93.50;;;;;;5033788;28;20169;-88
2022/10/14 09:00:51;;;;;;;112.93;61.07;;;13.30;93.30;;;;;;5032833;28;20535;-88
2022/10/14 09:03:32;;;;;;;110.80;60.67;;;13.40;93.30;;;;;;5032685;28;20184;-89
2022/10/14 09:06:24;;;;;;;101.73;59.03;;;13.40;93.00;;;;;;5032877;28;20649;-87
2022/10/14 09:08:54;;;;;;;96.10;55.93;;;13.40;92.80;;;;;;5033933;28;20667;-87
2022/10/14 09:11:23;;;;;;;95.90;56.47;;;13.50;92.70;;;;;;5032667;28;20165;-87
2022/10/14 09:13:53;;;;;;;102.43;57.27;;;13.50;92.70;;;;;;5032805;28;20188;-88
2022/10/14 09:16:21;;;;;;;91.17;55.37;;;13.60;92.70;;;;;;5032493;28;20161;-86
2022/10/14 09:18:51;;;;;;;92.07;56.57;;;13.70;92.40;;;;;;5033575;28;20255;-88
2022/10/14 09:21:22;;;;;;;90.60;54.43;;;13.80;92.30;;;;;;5032263;28;20169;-87
2022/10/14 09:24:01;;;;;;;86.80;52.70;;;13.80;92.10;;;;;;5032199;28;20203;-87
2022/10/14 09:26:39;;;;;;;88.00;52.47;;;13.70;91.80;;;;;;5033482;28;20169;-88
2022/10/14 09:29:14;;;;;;;89.30;53.00;;;13.80;92.00;;;;;;5032330;28;20549;-87
2022/10/14 09:31:40;;;;;;;88.13;52.07;;;13.80;91.80;;;;;;5032440;28;20168;-87
2022/10/14 09:34:08;;;;;;;94.70;54.73;;;13.70;91.60;;;;;;5032058;28;20644;-88
2022/10/14 09:36:33;;;;;;;87.27;52.77;;;13.70;91.70;;;;;;5032529;28;20589;-87
2022/10/14 09:38:59;;;;;;;90.77;52.23;;;13.70;91.80;;;;;;5032700;28;20188;-87
2022/10/14 09:41:29;;;;;;;87.77;52.67;;;13.70;91.80;;;;;;5033329;28;20549;-87
2022/10/14 09:44:20;;;;;;;85.87;52.37;;;13.70;91.90;;;;;;5031991;28;20196;-88
2022/10/14 09:46:48;;;;;;;94.93;51.57;;;13.60;92.00;;;;;;5032662;28;20172;-87
2022/10/14 09:49:24;;;;;;;86.07;50.03;;;13.50;91.80;;;;;;5032331;28;20678;-88
2022/10/14 09:51:50;;;;;;;86.97;49.63;;;13.50;92.00;;;;;;5032390;28;20234;-89
2022/10/14 09:54:26;;;;;;;80.53;47.73;;;13.50;92.00;;;;;;5032022;28;20201;-87
2022/10/14 09:57:04;;;;;;;83.37;47.40;;;13.50;91.80;;;;;;5031960;28;20187;-90
2022/10/14 09:59:31;;;;;;;79.60;46.27;;;13.50;91.80;;;;;;5032099;28;20175;-88
2022/10/14 10:02:02;;;;;;;83.57;45.47;;;13.60;91.70;;;;;;5032138;28;20195;-88
2022/10/14 10:04:46;;;;;;;74.83;44.77;;;13.50;91.60;;;;;;5031811;28;20196;-88
2022/10/14 10:07:32;;;;;;;83.13;47.30;;;13.50;91.50;;;;;;5031711;28;20180;-89
2022/10/14 10:10:00;;;;;;;79.73;47.47;;;13.60;91.60;;;;;;5035855;28;20548;-88
2022/10/14 10:12:33;;;;;;;83.13;45.47;;;13.60;91.50;;;;;;5035742;28;20187;-88
2022/10/14 10:15:04;;;;;;;79.07;44.13;;;13.60;91.30;;;;;;5035646;28;20551;-88
2022/10/14 10:17:32;;;;;;;82.87;43.23;;;13.70;91.60;;;;;;5035546;28;20655;-88
2022/10/14 10:20:27;;;;;;;78.27;45.33;;;13.70;91.00;;;;;;5035564;28;20264;-88
2022/10/14 10:22:53;;;;;;;73.47;42.23;;;13.70;91.00;;;;;;5035533;28;20207;-88
2022/10/14 10:25:25;;;;;;;72.70;42.30;;;13.80;90.90;;;;;;5035708;28;20208;-88
2022/10/14 10:27:51;;;;;;;71.53;41.07;;;13.80;90.60;;;;;;5035424;28;20204;-88
2022/10/14 10:30:17;;;;;;;63.20;38.40;;;13.80;90.50;;;;;;5035433;28;20177;-88
2022/10/14 10:32:51;;;;;;;60.23;35.93;;;13.80;89.90;;;;;;5035361;28;20591;-88
2022/10/14 10:35:28;;;;;;;62.63;38.00;;;13.80;89.50;;;;;;5035153;28;20226;-88
2022/10/14 10:38:04;;;;;;;62.83;38.07;;;13.90;89.30;;;;;;5035482;28;20709;-89
2022/10/14 10:40:37;;;;;;;61.03;35.93;;;13.90;89.40;;;;;;5035354;28;20630;-88
2022/10/14 10:43:17;;;;;;;54.80;31.60;;;13.90;89.10;;;;;;5035253;28;20176;-88
2022/10/14 10:46:03;;;;;;;64.40;38.37;;;13.80;88.80;;;;;;5035262;28;20176;-88
2022/10/14 10:48:48;;;;;;;57.73;36.83;;;13.80;88.90;;;;;;5035003;28;20204;-88
2022/10/14 10:51:42;;;;;;;53.77;32.07;;;13.90;89.10;;;;;;5036566;28;20180;-89
2022/10/14 10:54:21;;;;;;;51.60;32.17;;;13.80;88.00;;;;;;5034912;28;20295;-89
2022/10/14 10:56:54;;;;;;;52.10;33.10;;;13.90;88.00;;;;;;5034929;28;20187;-88
2022/10/14 10:59:37;;;;;;;49.23;32.40;;;13.80;87.60;;;;;;5034914;28;20295;-88
2022/10/14 11:02:32;;;;;;;53.37;33.60;;;13.90;87.70;;;;;;5035694;28;20259;-88
2022/10/14 11:05:15;;;;;;;53.10;33.63;;;13.90;87.80;;;;;;5035142;28;20578;-89
2022/10/14 11:14:20;;;;;;;57.53;36.33;;;13.90;88.60;;;;;;5036314;28;20231;-89
2022/10/14 11:16:51;;;;;;;52.83;33.33;;;13.80;88.00;;;;;;5035328;28;20544;-88
2022/10/14 11:19:33;;;;;;;52.37;31.97;;;13.90;87.60;;;;;;5033627;28;20172;-89
2022/10/14 11:22:18;;;;;;;53.90;34.47;;;14.00;87.20;;;;;;5034740;28;20173;-89
2022/10/14 11:25:05;;;;;;;48.90;31.50;;;14.00;87.10;;;;;;5034557;28;20200;-89
2022/10/14 11:27:42;;;;;;;49.60;32.87;;;13.80;86.40;;;;;;5034371;28;20177;-89
2022/10/14 11:30:12;;;;;;;55.13;34.17;;;13.80;86.70;;;;;;5034325;28;20175;-89
2022/10/14 11:32:50;;;;;;;53.97;34.43;;;13.80;86.80;;;;;;5034265;28;20183;-89
2022/10/14 11:35:34;;;;;;;55.80;35.13;;;13.70;87.30;;;;;;5034059;28;20208;-89
2022/10/14 11:38:35;;;;;;;46.40;33.10;;;13.70;87.40;;;;;;5034258;28;20169;-89
2022/10/14 11:41:06;;;;;;;52.43;34.07;;;13.60;87.50;;;;;;5023406;28;20192;-89
2022/10/14 11:43:44;;;;;;;55.87;33.50;;;13.60;87.60;;;;;;5034158;28;20205;-89
2022/10/14 11:46:13;;;;;;;55.63;32.57;;;13.70;87.80;;;;;;5034404;28;20611;-89
2022/10/14 11:48:50;;;;;;;50.23;33.40;;;13.70;88.00;;;;;;5034108;28;20296;-89
2022/10/14 11:51:22;;;;;;;48.50;31.93;;;13.80;87.70;;;;;;5034114;28;20168;-89
2022/10/14 11:54:10;;;;;;;48.27;34.13;;;13.90;87.40;;;;;;5034096;28;20204;-89
2022/10/14 11:56:53;;;;;;;43.33;33.00;;;14.10;87.00;;;;;;5034758;28;20169;-90
2022/10/14 11:59:46;;;;;;;45.13;31.93;;;14.30;85.90;;;;;;5033814;28;20213;-89
2022/10/14 12:02:22;;;;;;;43.37;30.97;;;14.30;85.30;;;;;;5033876;28;20216;-90
2022/10/14 12:04:57;;;;;;;47.00;32.17;;;14.60;85.60;;;;;;5033758;28;20200;-89
2022/10/14 12:07:39;;;;;;;43.53;29.47;;;14.60;84.20;;;;;;5033667;28;20180;-89
2022/10/14 12:10:18;;;;;;;41.03;29.60;;;14.70;83.80;;;;;;5033628;28;20631;-89
2022/10/14 12:12:44;;;;;;;39.83;30.07;;;14.70;84.20;;;;;;5033651;28;20657;-89
2022/10/14 12:15:17;;;;;;;47.60;31.40;;;14.90;84.50;;;;;;5033371;28;20287;-89
2022/10/14 12:18:35;;;;;;;40.00;29.88;;;15.00;84.10;;;;;;5034389;28;20206;-89
2022/10/14 12:21:12;;;;;;;43.47;31.03;;;14.80;83.90;;;;;;5001050;28;20275;-89
2022/10/14 12:23:56;;;;;;;44.33;32.23;;;14.60;84.50;;;;;;5034151;28;20197;-89
2022/10/14 12:26:22;;;;;;;41.25;30.77;;;14.50;85.10;;;;;;5033266;28;20210;-89
2022/10/14 12:29:45;;;;;;;41.88;29.75;;;14.80;85.20;;;;;;5033442;28;20224;-91
2022/10/14 12:32:19;;;;;;;40.10;30.13;;;14.70;83.90;;;;;;5032970;28;20228;-89
2022/10/14 12:34:49;;;;;;;35.67;27.52;;;14.60;83.60;;;;;;5040309;28;20231;-88
2022/10/14 12:37:33;;;;;;;39.15;28.30;;;14.60;83.40;;;;;;5033279;28;20176;-88
2022/10/14 12:40:02;;;;;;;33.00;25.15;;;14.70;83.90;;;;;;5033344;28;20164;-88
2022/10/14 12:42:50;;;;;;;33.57;26.43;;;14.60;83.50;;;;;;5033270;28;20192;-89
2022/10/14 12:45:22;;;;;;;34.25;26.08;;;14.70;82.90;;;;;;5033807;28;20193;-89
2022/10/14 12:48:05;;;;;;;38.47;24.75;;;14.90;82.90;;;;;;5033308;28;20564;-88